sensor_id;sensor_type;location;lat;lon;timestamp;P1;durP1;ratioP1;P2;durP2;ratioP2
22072;SDS011;11202;50.916;4.698;2022-09-03T00:02:19;7.65;;;2.40;;
22072;SDS011;11202;50.916;4.698;2022-09-03T00:05:09;6.50;;;2.38;;
22072;SDS011;11202;50.916;4.698;2022-09-03T00:14:02;3.38;;;2.17;;
22072;SDS011;11202;50.916;4.698;2022-09-03T00:19:12;7.22;;;2.58;;
22072;SDS011;11202;50.916;4.698;2022-09-03T00:24:27;8.45;;;2.28;;
22072;SDS011;11202;50.916;4.698;2022-09-03T00:27:03;3.88;;;2.25;;
22072;SDS011;11202;50.916;4.698;2022-09-03T00:29:37;4.03;;;2.08;;
22072;SDS011;11202;50.916;4.698;2022-09-03T00:32:14;2.95;;;2.05;;
22072;SDS011;11202;50.916;4.698;2022-09-03T00:34:50;2.85;;;1.90;;
22072;SDS011;11202;50.916;4.698;2022-09-03T00:37:23;5.97;;;2.35;;
22072;SDS011;11202;50.916;4.698;2022-09-03T00:39:48;2.80;;;1.83;;
22072;SDS011;11202;50.916;4.698;2022-09-03T00:42:37;8.52;;;2.40;;
22072;SDS011;11202;50.916;4.698;2022-09-03T00:46:02;4.38;;;2.00;;
22072;SDS011;11202;50.916;4.698;2022-09-03T00:51:09;3.65;;;1.98;;
22072;SDS011;11202;50.916;4.698;2022-09-03T00:56:26;4.00;;;1.92;;
22072;SDS011;11202;50.916;4.698;2022-09-03T01:21:15;6.57;;;2.50;;
22072;SDS011;11202;50.916;4.698;2022-09-03T01:27:17;5.85;;;2.28;;
22072;SDS011;11202;50.916;4.698;2022-09-03T01:32:26;5.47;;;2.33;;
22072;SDS011;11202;50.916;4.698;2022-09-03T01:41:10;6.50;;;2.28;;
22072;SDS011;11202;50.916;4.698;2022-09-03T01:44:18;5.53;;;2.00;;
22072;SDS011;11202;50.916;4.698;2022-09-03T01:47:05;4.40;;;1.90;;
22072;SDS011;11202;50.916;4.698;2022-09-03T01:49:37;6.60;;;2.20;;
22072;SDS011;11202;50.916;4.698;2022-09-03T01:55:08;8.25;;;2.30;;
22072;SDS011;11202;50.916;4.698;2022-09-03T01:57:55;4.03;;;2.03;;
22072;SDS011;11202;50.916;4.698;2022-09-03T02:00:27;15.75;;;1.95;;
22072;SDS011;11202;50.916;4.698;2022-09-03T02:02:59;5.95;;;2.10;;
22072;SDS011;11202;50.916;4.698;2022-09-03T02:05:29;4.18;;;2.00;;
22072;SDS011;11202;50.916;4.698;2022-09-03T02:13:19;3.50;;;1.92;;
22072;SDS011;11202;50.916;4.698;2022-09-03T02:15:55;3.50;;;2.10;;
22072;SDS011;11202;50.916;4.698;2022-09-03T02:18:26;5.85;;;1.92;;
22072;SDS011;11202;50.916;4.698;2022-09-03T02:20:55;5.22;;;2.40;;
22072;SDS011;11202;50.916;4.698;2022-09-03T02:23:23;7.82;;;2.20;;
22072;SDS011;11202;50.916;4.698;2022-09-03T02:25:54;2.92;;;2.00;;
22072;SDS011;11202;50.916;4.698;2022-09-03T02:28:26;7.40;;;2.10;;
22072;SDS011;11202;50.916;4.698;2022-09-03T02:30:54;3.47;;;1.90;;
22072;SDS011;11202;50.916;4.698;2022-09-03T02:33:20;3.97;;;2.10;;
22072;SDS011;11202;50.916;4.698;2022-09-03T02:35:46;6.25;;;2.10;;
22072;SDS011;11202;50.916;4.698;2022-09-03T02:40:43;5.55;;;2.20;;
22072;SDS011;11202;50.916;4.698;2022-09-03T02:43:12;5.65;;;2.50;;
22072;SDS011;11202;50.916;4.698;2022-09-03T02:45:47;17.30;;;2.97;;
22072;SDS011;11202;50.916;4.698;2022-09-03T02:48:15;4.70;;;2.50;;
22072;SDS011;11202;50.916;4.698;2022-09-03T02:50:45;3.70;;;2.30;;
22072;SDS011;11202;50.916;4.698;2022-09-03T02:53:11;5.70;;;2.55;;
22072;SDS011;11202;50.916;4.698;2022-09-03T02:55:37;5.97;;;2.20;;
22072;SDS011;11202;50.916;4.698;2022-09-03T02:58:03;3.00;;;1.92;;
22072;SDS011;11202;50.916;4.698;2022-09-03T03:00:32;4.20;;;2.10;;
22072;SDS011;11202;50.916;4.698;2022-09-03T03:03:00;5.22;;;2.17;;
22072;SDS011;11202;50.916;4.698;2022-09-03T03:05:35;4.13;;;2.22;;
22072;SDS011;11202;50.916;4.698;2022-09-03T03:08:12;4.72;;;2.17;;
22072;SDS011;11202;50.916;4.698;2022-09-03T03:10:45;16.55;;;2.33;;
22072;SDS011;11202;50.916;4.698;2022-09-03T03:13:14;9.20;;;2.20;;
22072;SDS011;11202;50.916;4.698;2022-09-03T03:15:40;6.75;;;2.70;;
22072;SDS011;11202;50.916;4.698;2022-09-03T03:18:07;8.38;;;2.20;;
22072;SDS011;11202;50.916;4.698;2022-09-03T03:20:36;7.68;;;2.30;;
22072;SDS011;11202;50.916;4.698;2022-09-03T03:23:02;4.72;;;2.10;;
22072;SDS011;11202;50.916;4.698;2022-09-03T03:25:33;4.65;;;2.58;;
22072;SDS011;11202;50.916;4.698;2022-09-03T03:28:02;4.70;;;2.15;;
22072;SDS011;11202;50.916;4.698;2022-09-03T03:30:29;6.20;;;2.10;;
22072;SDS011;11202;50.916;4.698;2022-09-03T03:32:55;4.50;;;2.42;;
22072;SDS011;11202;50.916;4.698;2022-09-03T03:35:22;5.03;;;2.45;;
22072;SDS011;11202;50.916;4.698;2022-09-03T03:37:48;5.03;;;2.33;;
22072;SDS011;11202;50.916;4.698;2022-09-03T03:40:14;4.75;;;2.53;;
22072;SDS011;11202;50.916;4.698;2022-09-03T03:42:40;7.00;;;2.47;;
22072;SDS011;11202;50.916;4.698;2022-09-03T03:45:06;5.18;;;2.08;;
22072;SDS011;11202;50.916;4.698;2022-09-03T03:47:34;5.68;;;2.00;;
22072;SDS011;11202;50.916;4.698;2022-09-03T03:50:00;4.20;;;1.92;;
22072;SDS011;11202;50.916;4.698;2022-09-03T03:52:27;3.65;;;1.95;;
22072;SDS011;11202;50.916;4.698;2022-09-03T03:54:53;4.75;;;2.40;;
22072;SDS011;11202;50.916;4.698;2022-09-03T03:57:22;6.72;;;2.35;;
22072;SDS011;11202;50.916;4.698;2022-09-03T03:59:48;3.42;;;2.45;;
22072;SDS011;11202;50.916;4.698;2022-09-03T04:02:15;6.97;;;2.30;;
22072;SDS011;11202;50.916;4.698;2022-09-03T04:04:41;8.43;;;2.30;;
22072;SDS011;11202;50.916;4.698;2022-09-03T04:07:07;14.15;;;2.70;;
22072;SDS011;11202;50.916;4.698;2022-09-03T04:09:33;4.78;;;2.17;;
22072;SDS011;11202;50.916;4.698;2022-09-03T04:11:59;5.07;;;1.92;;
22072;SDS011;11202;50.916;4.698;2022-09-03T04:14:25;5.28;;;1.83;;
22072;SDS011;11202;50.916;4.698;2022-09-03T04:16:55;5.10;;;2.00;;
22072;SDS011;11202;50.916;4.698;2022-09-03T04:19:23;5.70;;;2.10;;
22072;SDS011;11202;50.916;4.698;2022-09-03T04:21:53;8.07;;;1.83;;
22072;SDS011;11202;50.916;4.698;2022-09-03T04:24:21;4.35;;;2.00;;
22072;SDS011;11202;50.916;4.698;2022-09-03T04:26:49;4.47;;;2.10;;
22072;SDS011;11202;50.916;4.698;2022-09-03T04:29:18;16.85;;;2.50;;
22072;SDS011;11202;50.916;4.698;2022-09-03T04:31:45;5.97;;;1.92;;
22072;SDS011;11202;50.916;4.698;2022-09-03T04:34:31;4.43;;;2.00;;
22072;SDS011;11202;50.916;4.698;2022-09-03T04:36:57;15.45;;;2.40;;
22072;SDS011;11202;50.916;4.698;2022-09-03T04:39:24;14.27;;;2.35;;
22072;SDS011;11202;50.916;4.698;2022-09-03T04:41:50;1.77;;;1.67;;
22072;SDS011;11202;50.916;4.698;2022-09-03T04:44:16;6.47;;;2.50;;
22072;SDS011;11202;50.916;4.698;2022-09-03T04:46:42;3.05;;;1.85;;
22072;SDS011;11202;50.916;4.698;2022-09-03T04:49:08;5.07;;;1.90;;
22072;SDS011;11202;50.916;4.698;2022-09-03T04:51:34;4.47;;;2.22;;
22072;SDS011;11202;50.916;4.698;2022-09-03T04:54:02;4.35;;;1.70;;
22072;SDS011;11202;50.916;4.698;2022-09-03T04:56:29;2.22;;;2.00;;
22072;SDS011;11202;50.916;4.698;2022-09-03T04:59:00;5.55;;;2.38;;
22072;SDS011;11202;50.916;4.698;2022-09-03T05:01:29;4.78;;;2.03;;
22072;SDS011;11202;50.916;4.698;2022-09-03T05:03:57;5.45;;;1.90;;
22072;SDS011;11202;50.916;4.698;2022-09-03T05:06:24;3.67;;;1.85;;
22072;SDS011;11202;50.916;4.698;2022-09-03T05:08:53;4.72;;;2.45;;
22072;SDS011;11202;50.916;4.698;2022-09-03T05:11:20;5.40;;;2.15;;
22072;SDS011;11202;50.916;4.698;2022-09-03T05:13:51;3.50;;;2.00;;
22072;SDS011;11202;50.916;4.698;2022-09-03T05:16:19;8.23;;;2.00;;
22072;SDS011;11202;50.916;4.698;2022-09-03T05:18:45;2.08;;;1.88;;
22072;SDS011;11202;50.916;4.698;2022-09-03T05:21:12;5.53;;;1.88;;
22072;SDS011;11202;50.916;4.698;2022-09-03T05:23:41;5.18;;;2.25;;
22072;SDS011;11202;50.916;4.698;2022-09-03T05:26:12;4.65;;;1.98;;
22072;SDS011;11202;50.916;4.698;2022-09-03T05:28:40;2.92;;;2.03;;
22072;SDS011;11202;50.916;4.698;2022-09-03T05:31:08;4.50;;;2.10;;
22072;SDS011;11202;50.916;4.698;2022-09-03T05:33:36;5.32;;;2.05;;
22072;SDS011;11202;50.916;4.698;2022-09-03T05:36:04;3.67;;;2.30;;
22072;SDS011;11202;50.916;4.698;2022-09-03T05:38:32;5.13;;;2.05;;
22072;SDS011;11202;50.916;4.698;2022-09-03T05:41:01;4.38;;;2.33;;
22072;SDS011;11202;50.916;4.698;2022-09-03T05:43:30;3.65;;;1.80;;
22072;SDS011;11202;50.916;4.698;2022-09-03T05:45:57;6.35;;;2.00;;
22072;SDS011;11202;50.916;4.698;2022-09-03T05:48:24;6.45;;;2.20;;
22072;SDS011;11202;50.916;4.698;2022-09-03T05:53:47;4.63;;;2.10;;
22072;SDS011;11202;50.916;4.698;2022-09-03T05:56:20;3.22;;;2.00;;
22072;SDS011;11202;50.916;4.698;2022-09-03T05:58:48;2.05;;;1.85;;
22072;SDS011;11202;50.916;4.698;2022-09-03T06:01:16;6.40;;;2.03;;
22072;SDS011;11202;50.916;4.698;2022-09-03T06:03:45;8.68;;;1.80;;
22072;SDS011;11202;50.916;4.698;2022-09-03T06:06:13;4.13;;;2.20;;
22072;SDS011;11202;50.916;4.698;2022-09-03T06:08:41;2.97;;;2.17;;
22072;SDS011;11202;50.916;4.698;2022-09-03T06:11:09;5.63;;;2.00;;
22072;SDS011;11202;50.916;4.698;2022-09-03T06:13:35;4.05;;;1.92;;
22072;SDS011;11202;50.916;4.698;2022-09-03T06:16:03;5.88;;;2.03;;
22072;SDS011;11202;50.916;4.698;2022-09-03T06:18:30;3.97;;;2.15;;
22072;SDS011;11202;50.916;4.698;2022-09-03T06:20:56;3.13;;;1.70;;
22072;SDS011;11202;50.916;4.698;2022-09-03T06:23:24;4.78;;;1.88;;
22072;SDS011;11202;50.916;4.698;2022-09-03T06:25:59;2.67;;;2.10;;
22072;SDS011;11202;50.916;4.698;2022-09-03T06:28:30;3.17;;;1.90;;
22072;SDS011;11202;50.916;4.698;2022-09-03T06:30:58;2.92;;;1.83;;
22072;SDS011;11202;50.916;4.698;2022-09-03T06:33:26;5.75;;;1.48;;
22072;SDS011;11202;50.916;4.698;2022-09-03T06:35:55;4.15;;;1.70;;
22072;SDS011;11202;50.916;4.698;2022-09-03T06:38:25;5.03;;;1.90;;
22072;SDS011;11202;50.916;4.698;2022-09-03T06:40:57;3.53;;;1.83;;
22072;SDS011;11202;50.916;4.698;2022-09-03T06:43:28;4.65;;;1.90;;
22072;SDS011;11202;50.916;4.698;2022-09-03T06:45:57;5.18;;;1.60;;
22072;SDS011;11202;50.916;4.698;2022-09-03T06:48:30;4.53;;;1.95;;
22072;SDS011;11202;50.916;4.698;2022-09-03T06:51:01;6.35;;;1.73;;
22072;SDS011;11202;50.916;4.698;2022-09-03T06:53:28;3.55;;;1.92;;
22072;SDS011;11202;50.916;4.698;2022-09-03T06:55:57;3.85;;;1.95;;
22072;SDS011;11202;50.916;4.698;2022-09-03T06:58:30;5.85;;;1.80;;
22072;SDS011;11202;50.916;4.698;2022-09-03T07:03:27;2.75;;;1.77;;
22072;SDS011;11202;50.916;4.698;2022-09-03T07:05:55;6.13;;;1.98;;
22072;SDS011;11202;50.916;4.698;2022-09-03T07:08:25;5.45;;;2.20;;
22072;SDS011;11202;50.916;4.698;2022-09-03T07:10:51;4.25;;;2.05;;
22072;SDS011;11202;50.916;4.698;2022-09-03T07:13:17;3.17;;;1.85;;
22072;SDS011;11202;50.916;4.698;2022-09-03T07:15:44;4.05;;;2.15;;
22072;SDS011;11202;50.916;4.698;2022-09-03T07:18:12;3.25;;;2.13;;
22072;SDS011;11202;50.916;4.698;2022-09-03T07:20:39;8.20;;;2.20;;
22072;SDS011;11202;50.916;4.698;2022-09-03T07:23:05;3.40;;;1.88;;
22072;SDS011;11202;50.916;4.698;2022-09-03T07:25:31;10.60;;;2.40;;
22072;SDS011;11202;50.916;4.698;2022-09-03T07:27:57;4.22;;;1.73;;
22072;SDS011;11202;50.916;4.698;2022-09-03T07:30:22;2.80;;;2.00;;
22072;SDS011;11202;50.916;4.698;2022-09-03T07:32:50;3.20;;;1.90;;
22072;SDS011;11202;50.916;4.698;2022-09-03T07:35:16;8.05;;;1.90;;
22072;SDS011;11202;50.916;4.698;2022-09-03T07:37:43;2.58;;;1.90;;
22072;SDS011;11202;50.916;4.698;2022-09-03T07:40:09;6.63;;;2.20;;
22072;SDS011;11202;50.916;4.698;2022-09-03T07:42:37;2.22;;;2.03;;
22072;SDS011;11202;50.916;4.698;2022-09-03T07:45:05;5.72;;;2.00;;
22072;SDS011;11202;50.916;4.698;2022-09-03T07:47:35;6.55;;;2.70;;
22072;SDS011;11202;50.916;4.698;2022-09-03T07:50:01;5.47;;;1.90;;
22072;SDS011;11202;50.916;4.698;2022-09-03T07:52:28;6.68;;;2.10;;
22072;SDS011;11202;50.916;4.698;2022-09-03T07:54:54;8.88;;;2.38;;
22072;SDS011;11202;50.916;4.698;2022-09-03T07:57:23;3.33;;;1.85;;
22072;SDS011;11202;50.916;4.698;2022-09-03T07:59:48;3.78;;;2.10;;
22072;SDS011;11202;50.916;4.698;2022-09-03T08:02:14;5.05;;;1.88;;
22072;SDS011;11202;50.916;4.698;2022-09-03T08:04:42;4.63;;;2.30;;
22072;SDS011;11202;50.916;4.698;2022-09-03T08:07:09;5.53;;;1.98;;
22072;SDS011;11202;50.916;4.698;2022-09-03T08:09:35;6.40;;;2.00;;
22072;SDS011;11202;50.916;4.698;2022-09-03T08:12:01;2.67;;;2.00;;
22072;SDS011;11202;50.916;4.698;2022-09-03T08:14:26;3.42;;;1.88;;
22072;SDS011;11202;50.916;4.698;2022-09-03T08:16:54;6.53;;;1.95;;
22072;SDS011;11202;50.916;4.698;2022-09-03T08:21:49;4.82;;;2.20;;
22072;SDS011;11202;50.916;4.698;2022-09-03T08:24:15;3.83;;;2.40;;
22072;SDS011;11202;50.916;4.698;2022-09-03T08:26:44;11.48;;;2.40;;
22072;SDS011;11202;50.916;4.698;2022-09-03T08:29:10;11.55;;;2.55;;
22072;SDS011;11202;50.916;4.698;2022-09-03T08:31:36;5.22;;;1.80;;
22072;SDS011;11202;50.916;4.698;2022-09-03T08:34:02;3.80;;;1.88;;
22072;SDS011;11202;50.916;4.698;2022-09-03T08:36:30;8.98;;;2.40;;
22072;SDS011;11202;50.916;4.698;2022-09-03T08:38:59;4.00;;;1.90;;
22072;SDS011;11202;50.916;4.698;2022-09-03T08:41:43;2.85;;;1.90;;
22072;SDS011;11202;50.916;4.698;2022-09-03T08:44:32;4.22;;;2.28;;
22072;SDS011;11202;50.916;4.698;2022-09-03T08:47:41;4.93;;;2.03;;
22072;SDS011;11202;50.916;4.698;2022-09-03T08:57:50;4.43;;;2.30;;
22072;SDS011;11202;50.916;4.698;2022-09-03T09:00:21;3.38;;;2.10;;
22072;SDS011;11202;50.916;4.698;2022-09-03T09:02:52;4.35;;;2.28;;
22072;SDS011;11202;50.916;4.698;2022-09-03T09:08:26;4.00;;;1.90;;
22072;SDS011;11202;50.916;4.698;2022-09-03T09:13:53;5.13;;;2.10;;
22072;SDS011;11202;50.916;4.698;2022-09-03T09:19:07;2.63;;;2.10;;
22072;SDS011;11202;50.916;4.698;2022-09-03T09:21:44;5.70;;;2.22;;
22072;SDS011;11202;50.916;4.698;2022-09-03T09:24:28;3.63;;;2.17;;
22072;SDS011;11202;50.916;4.698;2022-09-03T09:27:04;2.60;;;2.40;;
22072;SDS011;11202;50.916;4.698;2022-09-03T09:29:31;5.70;;;2.72;;
22072;SDS011;11202;50.916;4.698;2022-09-03T09:32:02;7.03;;;2.65;;
22072;SDS011;11202;50.916;4.698;2022-09-03T09:34:37;4.28;;;2.10;;
22072;SDS011;11202;50.916;4.698;2022-09-03T09:37:05;4.57;;;2.67;;
22072;SDS011;11202;50.916;4.698;2022-09-03T09:39:40;3.30;;;2.50;;
22072;SDS011;11202;50.916;4.698;2022-09-03T09:42:20;4.05;;;2.65;;
22072;SDS011;11202;50.916;4.698;2022-09-03T09:44:47;9.20;;;2.55;;
22072;SDS011;11202;50.916;4.698;2022-09-03T09:52:11;7.82;;;3.05;;
22072;SDS011;11202;50.916;4.698;2022-09-03T09:54:39;4.17;;;2.77;;
22072;SDS011;11202;50.916;4.698;2022-09-03T09:57:12;3.85;;;2.63;;
22072;SDS011;11202;50.916;4.698;2022-09-03T09:59:45;4.40;;;2.70;;
22072;SDS011;11202;50.916;4.698;2022-09-03T10:04:51;3.40;;;2.70;;
22072;SDS011;11202;50.916;4.698;2022-09-03T10:07:22;3.28;;;2.90;;
22072;SDS011;11202;50.916;4.698;2022-09-03T10:10:06;6.70;;;2.80;;
22072;SDS011;11202;50.916;4.698;2022-09-03T10:12:49;9.07;;;3.33;;
22072;SDS011;11202;50.916;4.698;2022-09-03T10:21:14;4.38;;;2.53;;
22072;SDS011;11202;50.916;4.698;2022-09-03T10:26:29;6.35;;;2.95;;
22072;SDS011;11202;50.916;4.698;2022-09-03T10:28:57;4.22;;;2.90;;
22072;SDS011;11202;50.916;4.698;2022-09-03T10:42:31;8.27;;;3.10;;
22072;SDS011;11202;50.916;4.698;2022-09-03T10:48:13;4.10;;;2.77;;
22072;SDS011;11202;50.916;4.698;2022-09-03T10:57:03;4.03;;;2.88;;
22072;SDS011;11202;50.916;4.698;2022-09-03T10:59:48;5.45;;;3.03;;
22072;SDS011;11202;50.916;4.698;2022-09-03T11:05:13;3.60;;;3.00;;
22072;SDS011;11202;50.916;4.698;2022-09-03T11:07:48;4.35;;;3.00;;
22072;SDS011;11202;50.916;4.698;2022-09-03T11:10:31;7.78;;;3.45;;
22072;SDS011;11202;50.916;4.698;2022-09-03T11:15:25;5.15;;;3.03;;
22072;SDS011;11202;50.916;4.698;2022-09-03T11:18:13;4.55;;;3.20;;
22072;SDS011;11202;50.916;4.698;2022-09-03T11:20:43;4.57;;;2.92;;
22072;SDS011;11202;50.916;4.698;2022-09-03T11:25:40;5.95;;;3.10;;
22072;SDS011;11202;50.916;4.698;2022-09-03T11:33:37;6.10;;;3.40;;
22072;SDS011;11202;50.916;4.698;2022-09-03T11:36:07;5.13;;;3.53;;
22072;SDS011;11202;50.916;4.698;2022-09-03T11:38:33;5.68;;;3.20;;
22072;SDS011;11202;50.916;4.698;2022-09-03T11:44:17;6.55;;;3.58;;
22072;SDS011;11202;50.916;4.698;2022-09-03T11:46:52;3.78;;;3.38;;
22072;SDS011;11202;50.916;4.698;2022-09-03T11:49:30;7.45;;;3.67;;
22072;SDS011;11202;50.916;4.698;2022-09-03T11:52:03;5.10;;;3.42;;
22072;SDS011;11202;50.916;4.698;2022-09-03T11:54:41;4.53;;;3.05;;
22072;SDS011;11202;50.916;4.698;2022-09-03T11:57:13;4.47;;;3.08;;
22072;SDS011;11202;50.916;4.698;2022-09-03T11:59:48;4.13;;;3.08;;
22072;SDS011;11202;50.916;4.698;2022-09-03T12:18:46;4.55;;;3.55;;
22072;SDS011;11202;50.916;4.698;2022-09-03T12:21:17;4.78;;;3.20;;
22072;SDS011;11202;50.916;4.698;2022-09-03T12:23:45;4.35;;;3.30;;
22072;SDS011;11202;50.916;4.698;2022-09-03T12:26:17;4.15;;;3.00;;
22072;SDS011;11202;50.916;4.698;2022-09-03T12:28:55;4.57;;;3.10;;
22072;SDS011;11202;50.916;4.698;2022-09-03T12:31:27;8.25;;;3.22;;
22072;SDS011;11202;50.916;4.698;2022-09-03T12:36:47;3.60;;;3.17;;
22072;SDS011;11202;50.916;4.698;2022-09-03T12:39:23;3.15;;;2.85;;
22072;SDS011;11202;50.916;4.698;2022-09-03T12:41:55;5.45;;;2.80;;
22072;SDS011;11202;50.916;4.698;2022-09-03T12:44:37;4.57;;;2.97;;
22072;SDS011;11202;50.916;4.698;2022-09-03T12:49:38;5.95;;;3.40;;
22072;SDS011;11202;50.916;4.698;2022-09-03T12:54:40;3.38;;;2.83;;
22072;SDS011;11202;50.916;4.698;2022-09-03T12:59:46;3.47;;;2.65;;
22072;SDS011;11202;50.916;4.698;2022-09-03T13:02:15;3.15;;;2.75;;
22072;SDS011;11202;50.916;4.698;2022-09-03T13:04:46;2.90;;;2.60;;
22072;SDS011;11202;50.916;4.698;2022-09-03T13:07:21;5.28;;;2.90;;
22072;SDS011;11202;50.916;4.698;2022-09-03T13:09:48;3.25;;;2.70;;
22072;SDS011;11202;50.916;4.698;2022-09-03T13:12:28;3.08;;;2.65;;
22072;SDS011;11202;50.916;4.698;2022-09-03T13:15:03;4.15;;;2.50;;
22072;SDS011;11202;50.916;4.698;2022-09-03T13:20:15;2.45;;;2.25;;
22072;SDS011;11202;50.916;4.698;2022-09-03T13:26:13;3.10;;;2.45;;
22072;SDS011;11202;50.916;4.698;2022-09-03T13:31:37;4.70;;;2.50;;
22072;SDS011;11202;50.916;4.698;2022-09-03T13:34:14;2.38;;;2.17;;
22072;SDS011;11202;50.916;4.698;2022-09-03T13:40:17;5.35;;;2.35;;
22072;SDS011;11202;50.916;4.698;2022-09-03T13:42:55;3.67;;;2.60;;
22072;SDS011;11202;50.916;4.698;2022-09-03T13:45:38;4.75;;;2.90;;
22072;SDS011;11202;50.916;4.698;2022-09-03T13:48:19;4.68;;;3.40;;
22072;SDS011;11202;50.916;4.698;2022-09-03T13:51:21;4.40;;;2.85;;
22072;SDS011;11202;50.916;4.698;2022-09-03T13:59:39;3.22;;;2.92;;
22072;SDS011;11202;50.916;4.698;2022-09-03T14:07:27;4.40;;;3.10;;
22072;SDS011;11202;50.916;4.698;2022-09-03T14:15:41;5.47;;;3.13;;
22072;SDS011;11202;50.916;4.698;2022-09-03T14:20:44;5.53;;;2.95;;
22072;SDS011;11202;50.916;4.698;2022-09-03T14:26:26;3.50;;;2.95;;
22072;SDS011;11202;50.916;4.698;2022-09-03T14:29:01;4.25;;;2.97;;
22072;SDS011;11202;50.916;4.698;2022-09-03T14:37:23;4.97;;;2.58;;
22072;SDS011;11202;50.916;4.698;2022-09-03T14:39:58;3.00;;;2.70;;
22072;SDS011;11202;50.916;4.698;2022-09-03T14:43:00;3.50;;;2.63;;
22072;SDS011;11202;50.916;4.698;2022-09-03T14:57:42;3.13;;;2.60;;
22072;SDS011;11202;50.916;4.698;2022-09-03T15:06:22;6.00;;;2.50;;
22072;SDS011;11202;50.916;4.698;2022-09-03T15:11:53;3.53;;;2.70;;
22072;SDS011;11202;50.916;4.698;2022-09-03T15:14:26;5.97;;;3.28;;
22072;SDS011;11202;50.916;4.698;2022-09-03T15:23:17;4.10;;;3.05;;
22072;SDS011;11202;50.916;4.698;2022-09-03T15:25:50;4.05;;;3.22;;
22072;SDS011;11202;50.916;4.698;2022-09-03T15:31:25;3.20;;;2.90;;
22072;SDS011;11202;50.916;4.698;2022-09-03T15:36:33;8.60;;;2.92;;
22072;SDS011;11202;50.916;4.698;2022-09-03T15:39:21;3.00;;;2.70;;
22072;SDS011;11202;50.916;4.698;2022-09-03T15:41:56;4.13;;;3.00;;
22072;SDS011;11202;50.916;4.698;2022-09-03T15:44:40;5.22;;;2.88;;
22072;SDS011;11202;50.916;4.698;2022-09-03T15:47:13;12.50;;;3.45;;
22072;SDS011;11202;50.916;4.698;2022-09-03T15:50:23;15.98;;;3.60;;
22072;SDS011;11202;50.916;4.698;2022-09-03T15:55:29;3.45;;;3.03;;
22072;SDS011;11202;50.916;4.698;2022-09-03T15:58:13;6.07;;;2.92;;
22072;SDS011;11202;50.916;4.698;2022-09-03T16:06:58;3.92;;;3.15;;
22072;SDS011;11202;50.916;4.698;2022-09-03T16:09:35;7.38;;;3.22;;
22072;SDS011;11202;50.916;4.698;2022-09-03T16:15:27;4.32;;;2.80;;
22072;SDS011;11202;50.916;4.698;2022-09-03T16:18:01;18.30;;;11.75;;
22072;SDS011;11202;50.916;4.698;2022-09-03T16:23:35;6.28;;;3.30;;
22072;SDS011;11202;50.916;4.698;2022-09-03T16:28:59;4.00;;;3.60;;
22072;SDS011;11202;50.916;4.698;2022-09-03T16:51:05;6.80;;;3.58;;
22072;SDS011;11202;50.916;4.698;2022-09-03T16:53:43;18.75;;;3.78;;
22072;SDS011;11202;50.916;4.698;2022-09-03T16:59:24;3.55;;;1.75;;
22072;SDS011;11202;50.916;4.698;2022-09-03T17:01:54;2.38;;;1.52;;
22072;SDS011;11202;50.916;4.698;2022-09-03T17:24:53;2.80;;;1.70;;
22072;SDS011;11202;50.916;4.698;2022-09-03T17:27:49;3.00;;;1.50;;
22072;SDS011;11202;50.916;4.698;2022-09-03T17:36:10;5.00;;;1.67;;
22072;SDS011;11202;50.916;4.698;2022-09-03T17:47:01;6.60;;;2.83;;
22072;SDS011;11202;50.916;4.698;2022-09-03T17:52:20;4.28;;;2.40;;
22072;SDS011;11202;50.916;4.698;2022-09-03T17:58:23;6.78;;;2.80;;
22072;SDS011;11202;50.916;4.698;2022-09-03T18:01:00;4.38;;;2.65;;
22072;SDS011;11202;50.916;4.698;2022-09-03T18:03:52;4.05;;;2.30;;
22072;SDS011;11202;50.916;4.698;2022-09-03T18:11:46;11.73;;;3.72;;
22072;SDS011;11202;50.916;4.698;2022-09-03T18:14:39;16.70;;;4.70;;
22072;SDS011;11202;50.916;4.698;2022-09-03T18:20:21;20.80;;;5.80;;
22072;SDS011;11202;50.916;4.698;2022-09-03T18:23:11;14.07;;;6.15;;
22072;SDS011;11202;50.916;4.698;2022-09-03T18:26:14;19.23;;;5.57;;
22072;SDS011;11202;50.916;4.698;2022-09-03T18:29:10;21.10;;;5.07;;
22072;SDS011;11202;50.916;4.698;2022-09-03T18:31:59;13.93;;;5.22;;
22072;SDS011;11202;50.916;4.698;2022-09-03T18:34:44;16.40;;;5.28;;
22072;SDS011;11202;50.916;4.698;2022-09-03T18:37:29;9.90;;;5.00;;
22072;SDS011;11202;50.916;4.698;2022-09-03T18:40:19;15.35;;;5.63;;
22072;SDS011;11202;50.916;4.698;2022-09-03T18:43:16;12.90;;;5.82;;
22072;SDS011;11202;50.916;4.698;2022-09-03T18:46:15;6.50;;;5.35;;
22072;SDS011;11202;50.916;4.698;2022-09-03T18:49:17;6.45;;;5.53;;
22072;SDS011;11202;50.916;4.698;2022-09-03T19:01:39;11.45;;;6.60;;
22072;SDS011;11202;50.916;4.698;2022-09-03T19:20:37;5.97;;;2.80;;
22072;SDS011;11202;50.916;4.698;2022-09-03T19:23:29;10.45;;;6.32;;
22072;SDS011;11202;50.916;4.698;2022-09-03T19:26:20;15.00;;;5.15;;
22072;SDS011;11202;50.916;4.698;2022-09-03T19:32:28;10.32;;;3.47;;
22072;SDS011;11202;50.916;4.698;2022-09-03T19:35:30;5.25;;;3.20;;
22072;SDS011;11202;50.916;4.698;2022-09-03T19:38:36;3.22;;;2.92;;
22072;SDS011;11202;50.916;4.698;2022-09-03T19:41:32;3.15;;;2.85;;
22072;SDS011;11202;50.916;4.698;2022-09-03T19:44:32;5.28;;;3.10;;
22072;SDS011;11202;50.916;4.698;2022-09-03T19:47:34;4.57;;;3.17;;
22072;SDS011;11202;50.916;4.698;2022-09-03T19:50:28;7.15;;;3.22;;
22072;SDS011;11202;50.916;4.698;2022-09-03T19:53:17;4.15;;;3.05;;
22072;SDS011;11202;50.916;4.698;2022-09-03T19:56:06;3.50;;;3.00;;
22072;SDS011;11202;50.916;4.698;2022-09-03T19:59:00;4.50;;;3.05;;
22072;SDS011;11202;50.916;4.698;2022-09-03T20:01:53;7.65;;;2.97;;
22072;SDS011;11202;50.916;4.698;2022-09-03T20:04:38;4.57;;;3.20;;
22072;SDS011;11202;50.916;4.698;2022-09-03T20:07:27;4.18;;;3.10;;
22072;SDS011;11202;50.916;4.698;2022-09-03T20:10:21;8.50;;;3.15;;
22072;SDS011;11202;50.916;4.698;2022-09-03T20:16:18;6.70;;;3.53;;
22072;SDS011;11202;50.916;4.698;2022-09-03T20:33:18;8.35;;;6.00;;
22072;SDS011;11202;50.916;4.698;2022-09-03T21:13:00;10.52;;;6.68;;
22072;SDS011;11202;50.916;4.698;2022-09-03T21:15:27;12.40;;;6.97;;
22072;SDS011;11202;50.916;4.698;2022-09-03T21:24:21;8.50;;;7.10;;
22072;SDS011;11202;50.916;4.698;2022-09-03T21:26:52;10.60;;;6.50;;
22072;SDS011;11202;50.916;4.698;2022-09-03T21:29:24;11.00;;;6.90;;
22072;SDS011;11202;50.916;4.698;2022-09-03T21:34:28;8.07;;;7.00;;
22072;SDS011;11202;50.916;4.698;2022-09-03T21:36:57;10.75;;;6.80;;
22072;SDS011;11202;50.916;4.698;2022-09-03T21:39:32;9.20;;;7.30;;
22072;SDS011;11202;50.916;4.698;2022-09-03T21:42:08;11.35;;;7.32;;
22072;SDS011;11202;50.916;4.698;2022-09-03T21:44:40;8.52;;;7.30;;
22072;SDS011;11202;50.916;4.698;2022-09-03T21:47:12;10.25;;;7.75;;
22072;SDS011;11202;50.916;4.698;2022-09-03T21:52:32;12.95;;;7.05;;
22072;SDS011;11202;50.916;4.698;2022-09-03T21:55:17;10.27;;;6.55;;
22072;SDS011;11202;50.916;4.698;2022-09-03T21:58:11;8.18;;;6.78;;
22072;SDS011;11202;50.916;4.698;2022-09-03T22:00:38;8.38;;;6.93;;
22072;SDS011;11202;50.916;4.698;2022-09-03T22:03:05;9.82;;;6.82;;
22072;SDS011;11202;50.916;4.698;2022-09-03T22:05:40;8.95;;;6.72;;
22072;SDS011;11202;50.916;4.698;2022-09-03T22:08:19;8.20;;;6.78;;
22072;SDS011;11202;50.916;4.698;2022-09-03T22:10:58;7.80;;;6.47;;
22072;SDS011;11202;50.916;4.698;2022-09-03T22:13:51;9.75;;;6.55;;
22072;SDS011;11202;50.916;4.698;2022-09-03T22:16:31;7.85;;;6.53;;
22072;SDS011;11202;50.916;4.698;2022-09-03T22:19:13;8.32;;;5.82;;
22072;SDS011;11202;50.916;4.698;2022-09-03T22:21:41;8.38;;;5.65;;
22072;SDS011;11202;50.916;4.698;2022-09-03T22:32:16;8.50;;;5.80;;
22072;SDS011;11202;50.916;4.698;2022-09-03T22:38:11;8.57;;;5.57;;
22072;SDS011;11202;50.916;4.698;2022-09-03T22:40:47;10.85;;;5.82;;
22072;SDS011;11202;50.916;4.698;2022-09-03T22:46:13;7.03;;;5.75;;